sensor_id;sensor_type;location;lat;lon;timestamp;P1;durP1;ratioP1;P2;durP2;ratioP2
48040;SDS011;33815;48.386;11.738;2022-12-01T00:00:43;51.22;;;21.70;;
48040;SDS011;33815;48.386;11.738;2022-12-01T00:03:08;51.40;;;21.58;;
48040;SDS011;33815;48.386;11.738;2022-12-01T00:05:34;58.47;;;23.10;;
48040;SDS011;33815;48.386;11.738;2022-12-01T00:07:59;53.58;;;21.98;;
48040;SDS011;33815;48.386;11.738;2022-12-01T00:10:25;55.72;;;21.92;;
48040;SDS011;33815;48.386;11.738;2022-12-01T00:12:54;51.47;;;24.38;;
48040;SDS011;33815;48.386;11.738;2022-12-01T00:15:22;55.95;;;24.02;;
48040;SDS011;33815;48.386;11.738;2022-12-01T00:17:49;49.95;;;22.95;;
48040;SDS011;33815;48.386;11.738;2022-12-01T00:20:15;54.95;;;23.95;;
48040;SDS011;33815;48.386;11.738;2022-12-01T00:22:42;50.38;;;22.83;;
48040;SDS011;33815;48.386;11.738;2022-12-01T00:25:08;53.70;;;23.83;;
48040;SDS011;33815;48.386;11.738;2022-12-01T00:27:34;50.80;;;22.25;;
48040;SDS011;33815;48.386;11.738;2022-12-01T00:29:59;53.88;;;24.50;;
48040;SDS011;33815;48.386;11.738;2022-12-01T00:32:25;52.17;;;22.35;;
48040;SDS011;33815;48.386;11.738;2022-12-01T00:34:50;56.15;;;24.80;;
48040;SDS011;33815;48.386;11.738;2022-12-01T00:37:15;51.83;;;23.15;;
48040;SDS011;33815;48.386;11.738;2022-12-01T00:39:40;49.25;;;22.13;;
48040;SDS011;33815;48.386;11.738;2022-12-01T00:42:06;50.88;;;22.23;;
48040;SDS011;33815;48.386;11.738;2022-12-01T00:44:31;53.70;;;22.20;;
48040;SDS011;33815;48.386;11.738;2022-12-01T00:46:56;55.38;;;23.58;;
48040;SDS011;33815;48.386;11.738;2022-12-01T00:49:22;53.08;;;22.10;;
48040;SDS011;33815;48.386;11.738;2022-12-01T00:51:48;51.65;;;23.02;;
48040;SDS011;33815;48.386;11.738;2022-12-01T00:54:13;49.15;;;21.75;;
48040;SDS011;33815;48.386;11.738;2022-12-01T00:56:39;51.10;;;21.92;;
48040;SDS011;33815;48.386;11.738;2022-12-01T00:59:04;54.38;;;22.25;;
48040;SDS011;33815;48.386;11.738;2022-12-01T01:01:29;50.60;;;22.33;;
48040;SDS011;33815;48.386;11.738;2022-12-01T01:03:55;43.58;;;22.33;;
48040;SDS011;33815;48.386;11.738;2022-12-01T01:06:21;53.95;;;21.60;;
48040;SDS011;33815;48.386;11.738;2022-12-01T01:08:47;49.67;;;22.85;;
48040;SDS011;33815;48.386;11.738;2022-12-01T01:11:12;48.72;;;22.50;;
48040;SDS011;33815;48.386;11.738;2022-12-01T01:13:37;54.17;;;23.02;;
48040;SDS011;33815;48.386;11.738;2022-12-01T01:18:34;48.35;;;21.30;;
48040;SDS011;33815;48.386;11.738;2022-12-01T01:21:00;51.10;;;21.17;;
48040;SDS011;33815;48.386;11.738;2022-12-01T01:23:28;46.80;;;21.30;;
48040;SDS011;33815;48.386;11.738;2022-12-01T01:25:59;47.03;;;20.85;;
48040;SDS011;33815;48.386;11.738;2022-12-01T01:28:32;45.78;;;21.73;;
48040;SDS011;33815;48.386;11.738;2022-12-01T01:30:58;53.17;;;22.45;;
48040;SDS011;33815;48.386;11.738;2022-12-01T01:33:24;49.65;;;21.67;;
48040;SDS011;33815;48.386;11.738;2022-12-01T01:35:49;47.85;;;22.00;;
48040;SDS011;33815;48.386;11.738;2022-12-01T01:38:14;43.28;;;20.25;;
48040;SDS011;33815;48.386;11.738;2022-12-01T01:40:43;56.03;;;23.42;;
48040;SDS011;33815;48.386;11.738;2022-12-01T01:43:12;50.35;;;22.35;;
48040;SDS011;33815;48.386;11.738;2022-12-01T01:45:40;47.15;;;22.83;;
48040;SDS011;33815;48.386;11.738;2022-12-01T01:48:05;45.72;;;22.13;;
48040;SDS011;33815;48.386;11.738;2022-12-01T01:50:32;51.65;;;22.95;;
48040;SDS011;33815;48.386;11.738;2022-12-01T01:53:01;46.33;;;20.77;;
48040;SDS011;33815;48.386;11.738;2022-12-01T01:55:31;50.05;;;21.70;;
48040;SDS011;33815;48.386;11.738;2022-12-01T01:57:58;44.40;;;20.75;;
48040;SDS011;33815;48.386;11.738;2022-12-01T02:00:25;47.40;;;21.55;;
48040;SDS011;33815;48.386;11.738;2022-12-01T02:02:50;45.65;;;20.75;;
48040;SDS011;33815;48.386;11.738;2022-12-01T02:05:18;45.10;;;22.13;;
48040;SDS011;33815;48.386;11.738;2022-12-01T02:07:47;47.03;;;21.98;;
48040;SDS011;33815;48.386;11.738;2022-12-01T02:10:14;38.10;;;19.67;;
48040;SDS011;33815;48.386;11.738;2022-12-01T02:19:04;41.08;;;21.00;;
48040;SDS011;33815;48.386;11.738;2022-12-01T02:22:09;41.33;;;20.17;;
48040;SDS011;33815;48.386;11.738;2022-12-01T02:33:14;40.30;;;18.75;;
48040;SDS011;33815;48.386;11.738;2022-12-01T02:35:53;40.97;;;21.15;;
48040;SDS011;33815;48.386;11.738;2022-12-01T02:38:33;38.75;;;20.25;;
48040;SDS011;33815;48.386;11.738;2022-12-01T02:41:04;36.63;;;18.65;;
48040;SDS011;33815;48.386;11.738;2022-12-01T02:43:42;38.15;;;19.45;;
48040;SDS011;33815;48.386;11.738;2022-12-01T02:46:26;35.20;;;17.85;;
48040;SDS011;33815;48.386;11.738;2022-12-01T02:48:57;36.67;;;17.48;;
48040;SDS011;33815;48.386;11.738;2022-12-01T02:51:27;37.33;;;18.17;;
48040;SDS011;33815;48.386;11.738;2022-12-01T02:53:58;42.88;;;18.92;;
48040;SDS011;33815;48.386;11.738;2022-12-01T02:56:25;36.33;;;18.77;;
48040;SDS011;33815;48.386;11.738;2022-12-01T02:58:51;38.55;;;19.42;;
48040;SDS011;33815;48.386;11.738;2022-12-01T03:01:38;36.75;;;18.85;;
48040;SDS011;33815;48.386;11.738;2022-12-01T03:07:21;38.90;;;19.88;;
48040;SDS011;33815;48.386;11.738;2022-12-01T03:12:54;41.30;;;19.35;;
48040;SDS011;33815;48.386;11.738;2022-12-01T03:15:29;38.78;;;18.30;;
48040;SDS011;33815;48.386;11.738;2022-12-01T03:21:20;35.47;;;17.77;;
48040;SDS011;33815;48.386;11.738;2022-12-01T03:23:54;39.25;;;18.02;;
48040;SDS011;33815;48.386;11.738;2022-12-01T03:26:23;34.80;;;17.13;;
48040;SDS011;33815;48.386;11.738;2022-12-01T03:28:57;34.55;;;18.52;;
48040;SDS011;33815;48.386;11.738;2022-12-01T03:31:30;40.20;;;19.35;;
48040;SDS011;33815;48.386;11.738;2022-12-01T03:34:02;31.70;;;17.42;;
48040;SDS011;33815;48.386;11.738;2022-12-01T03:36:38;31.98;;;18.08;;
48040;SDS011;33815;48.386;11.738;2022-12-01T03:39:12;32.72;;;16.70;;
48040;SDS011;33815;48.386;11.738;2022-12-01T03:41:46;34.72;;;17.60;;
48040;SDS011;33815;48.386;11.738;2022-12-01T03:44:19;40.08;;;20.10;;
48040;SDS011;33815;48.386;11.738;2022-12-01T03:46:48;36.50;;;17.77;;
48040;SDS011;33815;48.386;11.738;2022-12-01T03:49:20;32.42;;;16.83;;
48040;SDS011;33815;48.386;11.738;2022-12-01T03:57:23;31.80;;;16.85;;
48040;SDS011;33815;48.386;11.738;2022-12-01T03:59:53;35.22;;;17.65;;
48040;SDS011;33815;48.386;11.738;2022-12-01T04:02:19;34.75;;;17.05;;
48040;SDS011;33815;48.386;11.738;2022-12-01T04:04:45;35.88;;;17.52;;
48040;SDS011;33815;48.386;11.738;2022-12-01T04:07:10;33.20;;;17.65;;
48040;SDS011;33815;48.386;11.738;2022-12-01T04:09:39;36.85;;;17.75;;
48040;SDS011;33815;48.386;11.738;2022-12-01T04:12:05;36.67;;;18.63;;
48040;SDS011;33815;48.386;11.738;2022-12-01T04:14:50;35.72;;;18.15;;
48040;SDS011;33815;48.386;11.738;2022-12-01T04:17:15;32.38;;;16.55;;
48040;SDS011;33815;48.386;11.738;2022-12-01T04:19:41;30.60;;;16.17;;
48040;SDS011;33815;48.386;11.738;2022-12-01T04:22:06;36.50;;;19.27;;
48040;SDS011;33815;48.386;11.738;2022-12-01T04:24:31;36.85;;;17.85;;
48040;SDS011;33815;48.386;11.738;2022-12-01T04:26:56;33.60;;;17.80;;
48040;SDS011;33815;48.386;11.738;2022-12-01T04:29:22;29.73;;;17.08;;
48040;SDS011;33815;48.386;11.738;2022-12-01T04:31:47;34.47;;;17.67;;
48040;SDS011;33815;48.386;11.738;2022-12-01T04:34:12;40.25;;;17.40;;
48040;SDS011;33815;48.386;11.738;2022-12-01T04:36:38;29.58;;;16.80;;
48040;SDS011;33815;48.386;11.738;2022-12-01T04:39:03;30.38;;;16.95;;
48040;SDS011;33815;48.386;11.738;2022-12-01T04:41:29;35.78;;;18.35;;
48040;SDS011;33815;48.386;11.738;2022-12-01T04:43:54;33.17;;;17.58;;
48040;SDS011;33815;48.386;11.738;2022-12-01T04:46:20;35.60;;;17.20;;
48040;SDS011;33815;48.386;11.738;2022-12-01T04:48:45;32.00;;;16.58;;
48040;SDS011;33815;48.386;11.738;2022-12-01T04:51:11;28.30;;;15.50;;
48040;SDS011;33815;48.386;11.738;2022-12-01T04:53:36;28.92;;;15.63;;
48040;SDS011;33815;48.386;11.738;2022-12-01T04:56:02;29.05;;;16.33;;
48040;SDS011;33815;48.386;11.738;2022-12-01T04:58:28;35.15;;;16.65;;
48040;SDS011;33815;48.386;11.738;2022-12-01T05:00:59;31.88;;;16.05;;
48040;SDS011;33815;48.386;11.738;2022-12-01T05:03:25;28.33;;;16.38;;
48040;SDS011;33815;48.386;11.738;2022-12-01T05:05:59;29.15;;;15.90;;
48040;SDS011;33815;48.386;11.738;2022-12-01T05:08:28;29.17;;;15.57;;
48040;SDS011;33815;48.386;11.738;2022-12-01T05:10:54;31.48;;;16.92;;
48040;SDS011;33815;48.386;11.738;2022-12-01T05:13:20;32.28;;;15.93;;
48040;SDS011;33815;48.386;11.738;2022-12-01T05:15:46;31.90;;;15.55;;
48040;SDS011;33815;48.386;11.738;2022-12-01T05:18:11;33.45;;;15.93;;
48040;SDS011;33815;48.386;11.738;2022-12-01T05:20:36;32.33;;;16.58;;
48040;SDS011;33815;48.386;11.738;2022-12-01T05:23:20;37.45;;;17.48;;
48040;SDS011;33815;48.386;11.738;2022-12-01T05:25:45;35.10;;;17.02;;
48040;SDS011;33815;48.386;11.738;2022-12-01T05:28:10;35.28;;;16.77;;
48040;SDS011;33815;48.386;11.738;2022-12-01T05:30:36;34.17;;;16.83;;
48040;SDS011;33815;48.386;11.738;2022-12-01T05:33:01;29.63;;;15.85;;
48040;SDS011;33815;48.386;11.738;2022-12-01T05:35:27;32.78;;;16.85;;
48040;SDS011;33815;48.386;11.738;2022-12-01T05:37:52;36.50;;;16.08;;
48040;SDS011;33815;48.386;11.738;2022-12-01T05:40:18;32.53;;;15.23;;
48040;SDS011;33815;48.386;11.738;2022-12-01T05:42:43;32.90;;;17.45;;
48040;SDS011;33815;48.386;11.738;2022-12-01T05:45:08;31.25;;;16.48;;
48040;SDS011;33815;48.386;11.738;2022-12-01T05:47:34;29.58;;;14.88;;
48040;SDS011;33815;48.386;11.738;2022-12-01T05:49:59;31.80;;;16.38;;
48040;SDS011;33815;48.386;11.738;2022-12-01T05:52:25;32.72;;;16.70;;
48040;SDS011;33815;48.386;11.738;2022-12-01T05:54:50;28.52;;;14.80;;
48040;SDS011;33815;48.386;11.738;2022-12-01T05:57:15;29.45;;;16.15;;
48040;SDS011;33815;48.386;11.738;2022-12-01T05:59:40;31.25;;;16.83;;
48040;SDS011;33815;48.386;11.738;2022-12-01T06:02:06;29.38;;;15.25;;
48040;SDS011;33815;48.386;11.738;2022-12-01T06:04:31;27.20;;;14.63;;
48040;SDS011;33815;48.386;11.738;2022-12-01T06:06:56;28.85;;;14.88;;
48040;SDS011;33815;48.386;11.738;2022-12-01T06:09:22;27.23;;;14.48;;
48040;SDS011;33815;48.386;11.738;2022-12-01T06:11:47;27.50;;;15.68;;
48040;SDS011;33815;48.386;11.738;2022-12-01T06:14:12;29.05;;;15.27;;
48040;SDS011;33815;48.386;11.738;2022-12-01T06:16:37;32.33;;;17.73;;
48040;SDS011;33815;48.386;11.738;2022-12-01T06:19:03;32.88;;;17.55;;
48040;SDS011;33815;48.386;11.738;2022-12-01T06:21:28;27.45;;;14.40;;
48040;SDS011;33815;48.386;11.738;2022-12-01T06:23:53;30.27;;;17.23;;
48040;SDS011;33815;48.386;11.738;2022-12-01T06:26:18;32.67;;;16.33;;
48040;SDS011;33815;48.386;11.738;2022-12-01T06:28:44;29.25;;;15.10;;
48040;SDS011;33815;48.386;11.738;2022-12-01T06:31:09;32.28;;;16.15;;
48040;SDS011;33815;48.386;11.738;2022-12-01T06:33:34;30.52;;;16.10;;
48040;SDS011;33815;48.386;11.738;2022-12-01T06:36:00;32.17;;;16.02;;
48040;SDS011;33815;48.386;11.738;2022-12-01T06:38:33;36.33;;;17.52;;
48040;SDS011;33815;48.386;11.738;2022-12-01T06:41:00;32.97;;;16.98;;
48040;SDS011;33815;48.386;11.738;2022-12-01T06:43:25;32.30;;;17.23;;
48040;SDS011;33815;48.386;11.738;2022-12-01T06:45:51;32.95;;;16.67;;
48040;SDS011;33815;48.386;11.738;2022-12-01T06:48:16;30.67;;;17.23;;
48040;SDS011;33815;48.386;11.738;2022-12-01T06:50:42;26.60;;;15.55;;
48040;SDS011;33815;48.386;11.738;2022-12-01T06:53:07;30.65;;;16.38;;
48040;SDS011;33815;48.386;11.738;2022-12-01T06:55:33;32.45;;;18.33;;
48040;SDS011;33815;48.386;11.738;2022-12-01T06:57:59;35.15;;;16.95;;
48040;SDS011;33815;48.386;11.738;2022-12-01T07:00:25;29.90;;;15.90;;
48040;SDS011;33815;48.386;11.738;2022-12-01T07:02:51;31.20;;;16.08;;
48040;SDS011;33815;48.386;11.738;2022-12-01T07:05:16;31.45;;;16.10;;
48040;SDS011;33815;48.386;11.738;2022-12-01T07:07:41;33.22;;;16.35;;
48040;SDS011;33815;48.386;11.738;2022-12-01T07:10:07;30.35;;;16.52;;
48040;SDS011;33815;48.386;11.738;2022-12-01T07:12:34;29.50;;;15.23;;
48040;SDS011;33815;48.386;11.738;2022-12-01T07:14:59;30.02;;;17.38;;
48040;SDS011;33815;48.386;11.738;2022-12-01T07:17:25;27.55;;;15.45;;
48040;SDS011;33815;48.386;11.738;2022-12-01T07:19:51;28.35;;;15.18;;
48040;SDS011;33815;48.386;11.738;2022-12-01T07:22:16;29.67;;;17.33;;
48040;SDS011;33815;48.386;11.738;2022-12-01T07:24:41;31.80;;;16.35;;
48040;SDS011;33815;48.386;11.738;2022-12-01T07:27:07;32.55;;;18.98;;
48040;SDS011;33815;48.386;11.738;2022-12-01T07:29:32;32.67;;;16.45;;
48040;SDS011;33815;48.386;11.738;2022-12-01T07:31:57;32.08;;;16.95;;
48040;SDS011;33815;48.386;11.738;2022-12-01T07:34:23;28.83;;;16.45;;
48040;SDS011;33815;48.386;11.738;2022-12-01T07:36:48;31.70;;;15.88;;
48040;SDS011;33815;48.386;11.738;2022-12-01T07:39:13;29.58;;;16.30;;
48040;SDS011;33815;48.386;11.738;2022-12-01T07:41:39;27.45;;;15.52;;
48040;SDS011;33815;48.386;11.738;2022-12-01T07:44:04;28.55;;;15.35;;
48040;SDS011;33815;48.386;11.738;2022-12-01T07:46:29;28.45;;;15.20;;
48040;SDS011;33815;48.386;11.738;2022-12-01T07:48:55;30.00;;;16.73;;
48040;SDS011;33815;48.386;11.738;2022-12-01T07:51:21;32.70;;;16.00;;
48040;SDS011;33815;48.386;11.738;2022-12-01T07:53:48;35.15;;;16.40;;
48040;SDS011;33815;48.386;11.738;2022-12-01T07:56:15;37.80;;;17.20;;
48040;SDS011;33815;48.386;11.738;2022-12-01T07:58:41;30.40;;;16.42;;
48040;SDS011;33815;48.386;11.738;2022-12-01T08:01:09;26.02;;;14.07;;
48040;SDS011;33815;48.386;11.738;2022-12-01T08:03:36;30.98;;;16.73;;
48040;SDS011;33815;48.386;11.738;2022-12-01T08:06:03;36.60;;;18.42;;
48040;SDS011;33815;48.386;11.738;2022-12-01T08:08:30;28.05;;;15.48;;
48040;SDS011;33815;48.386;11.738;2022-12-01T08:10:58;30.65;;;15.52;;
48040;SDS011;33815;48.386;11.738;2022-12-01T08:13:25;30.80;;;16.65;;
48040;SDS011;33815;48.386;11.738;2022-12-01T08:15:51;30.20;;;15.02;;
48040;SDS011;33815;48.386;11.738;2022-12-01T08:18:16;29.35;;;14.43;;
48040;SDS011;33815;48.386;11.738;2022-12-01T08:20:41;30.63;;;15.52;;
48040;SDS011;33815;48.386;11.738;2022-12-01T08:23:07;27.73;;;16.52;;
48040;SDS011;33815;48.386;11.738;2022-12-01T08:25:32;28.23;;;16.10;;
48040;SDS011;33815;48.386;11.738;2022-12-01T08:27:58;33.17;;;15.80;;
48040;SDS011;33815;48.386;11.738;2022-12-01T08:30:24;31.88;;;16.88;;
48040;SDS011;33815;48.386;11.738;2022-12-01T08:32:54;29.48;;;15.55;;
48040;SDS011;33815;48.386;11.738;2022-12-01T08:35:21;31.95;;;15.48;;
48040;SDS011;33815;48.386;11.738;2022-12-01T08:37:46;28.05;;;16.45;;
48040;SDS011;33815;48.386;11.738;2022-12-01T08:40:12;28.63;;;16.35;;
48040;SDS011;33815;48.386;11.738;2022-12-01T08:42:37;28.45;;;15.63;;
48040;SDS011;33815;48.386;11.738;2022-12-01T08:45:03;27.15;;;15.02;;
48040;SDS011;33815;48.386;11.738;2022-12-01T08:47:28;27.38;;;15.88;;
48040;SDS011;33815;48.386;11.738;2022-12-01T08:49:54;31.88;;;16.05;;
48040;SDS011;33815;48.386;11.738;2022-12-01T08:52:19;28.45;;;16.25;;
48040;SDS011;33815;48.386;11.738;2022-12-01T08:54:44;30.50;;;16.15;;
48040;SDS011;33815;48.386;11.738;2022-12-01T08:57:10;30.38;;;15.57;;
48040;SDS011;33815;48.386;11.738;2022-12-01T08:59:36;30.13;;;14.38;;
48040;SDS011;33815;48.386;11.738;2022-12-01T09:02:01;31.45;;;15.82;;
48040;SDS011;33815;48.386;11.738;2022-12-01T09:04:27;28.65;;;16.15;;
48040;SDS011;33815;48.386;11.738;2022-12-01T09:06:53;28.45;;;15.05;;
48040;SDS011;33815;48.386;11.738;2022-12-01T09:09:23;25.27;;;14.75;;
48040;SDS011;33815;48.386;11.738;2022-12-01T09:11:52;26.48;;;15.45;;
48040;SDS011;33815;48.386;11.738;2022-12-01T09:14:19;28.52;;;15.40;;
48040;SDS011;33815;48.386;11.738;2022-12-01T09:16:46;25.65;;;15.18;;
48040;SDS011;33815;48.386;11.738;2022-12-01T09:19:13;34.95;;;17.08;;
48040;SDS011;33815;48.386;11.738;2022-12-01T09:21:40;35.20;;;19.88;;
48040;SDS011;33815;48.386;11.738;2022-12-01T09:24:08;26.25;;;14.88;;
48040;SDS011;33815;48.386;11.738;2022-12-01T09:26:35;25.33;;;15.63;;
48040;SDS011;33815;48.386;11.738;2022-12-01T09:29:01;28.60;;;16.25;;
48040;SDS011;33815;48.386;11.738;2022-12-01T09:31:30;25.50;;;14.75;;
48040;SDS011;33815;48.386;11.738;2022-12-01T09:33:57;29.05;;;16.33;;
48040;SDS011;33815;48.386;11.738;2022-12-01T09:36:24;28.17;;;16.27;;
48040;SDS011;33815;48.386;11.738;2022-12-01T09:38:50;29.27;;;15.57;;
48040;SDS011;33815;48.386;11.738;2022-12-01T09:41:22;30.60;;;15.65;;
48040;SDS011;33815;48.386;11.738;2022-12-01T09:43:56;28.33;;;15.27;;
48040;SDS011;33815;48.386;11.738;2022-12-01T09:46:31;27.17;;;14.90;;
48040;SDS011;33815;48.386;11.738;2022-12-01T09:49:04;25.98;;;15.20;;
48040;SDS011;33815;48.386;11.738;2022-12-01T09:51:36;24.38;;;14.65;;
48040;SDS011;33815;48.386;11.738;2022-12-01T09:54:01;27.73;;;15.27;;
48040;SDS011;33815;48.386;11.738;2022-12-01T09:56:32;33.72;;;18.63;;
48040;SDS011;33815;48.386;11.738;2022-12-01T09:59:06;31.20;;;17.00;;
48040;SDS011;33815;48.386;11.738;2022-12-01T10:01:42;27.20;;;15.38;;
48040;SDS011;33815;48.386;11.738;2022-12-01T10:04:10;24.30;;;14.70;;
48040;SDS011;33815;48.386;11.738;2022-12-01T10:06:43;27.30;;;14.68;;
48040;SDS011;33815;48.386;11.738;2022-12-01T10:11:58;26.73;;;15.52;;
48040;SDS011;33815;48.386;11.738;2022-12-01T10:14:31;27.63;;;14.43;;
48040;SDS011;33815;48.386;11.738;2022-12-01T10:22:36;29.40;;;15.30;;
48040;SDS011;33815;48.386;11.738;2022-12-01T10:25:20;27.45;;;14.70;;
48040;SDS011;33815;48.386;11.738;2022-12-01T10:30:49;30.73;;;16.20;;
48040;SDS011;33815;48.386;11.738;2022-12-01T10:35:48;29.25;;;15.55;;
48040;SDS011;33815;48.386;11.738;2022-12-01T10:38:20;30.48;;;17.23;;
48040;SDS011;33815;48.386;11.738;2022-12-01T10:40:49;31.13;;;16.48;;
48040;SDS011;33815;48.386;11.738;2022-12-01T10:43:15;31.95;;;16.48;;
48040;SDS011;33815;48.386;11.738;2022-12-01T10:45:42;31.63;;;17.15;;
48040;SDS011;33815;48.386;11.738;2022-12-01T10:56:11;29.17;;;15.77;;
48040;SDS011;33815;48.386;11.738;2022-12-01T11:03:59;35.08;;;16.83;;
48040;SDS011;33815;48.386;11.738;2022-12-01T11:06:32;34.08;;;16.98;;
48040;SDS011;33815;48.386;11.738;2022-12-01T11:08:59;30.58;;;16.10;;
48040;SDS011;33815;48.386;11.738;2022-12-01T11:11:30;31.65;;;15.68;;
48040;SDS011;33815;48.386;11.738;2022-12-01T11:14:00;28.25;;;16.50;;
48040;SDS011;33815;48.386;11.738;2022-12-01T11:16:43;31.98;;;17.92;;
48040;SDS011;33815;48.386;11.738;2022-12-01T11:21:47;39.15;;;18.55;;
48040;SDS011;33815;48.386;11.738;2022-12-01T11:24:28;33.65;;;17.63;;
48040;SDS011;33815;48.386;11.738;2022-12-01T11:26:54;32.03;;;17.00;;
48040;SDS011;33815;48.386;11.738;2022-12-01T11:29:25;32.45;;;16.45;;
48040;SDS011;33815;48.386;11.738;2022-12-01T11:31:55;33.30;;;18.30;;
48040;SDS011;33815;48.386;11.738;2022-12-01T11:34:28;34.50;;;17.23;;
48040;SDS011;33815;48.386;11.738;2022-12-01T11:36:57;32.70;;;17.83;;
48040;SDS011;33815;48.386;11.738;2022-12-01T11:41:53;36.63;;;18.67;;
48040;SDS011;33815;48.386;11.738;2022-12-01T11:44:39;36.63;;;17.50;;
48040;SDS011;33815;48.386;11.738;2022-12-01T11:47:16;37.25;;;18.17;;
48040;SDS011;33815;48.386;11.738;2022-12-01T11:49:45;35.75;;;18.27;;
48040;SDS011;33815;48.386;11.738;2022-12-01T11:52:27;35.30;;;17.13;;
48040;SDS011;33815;48.386;11.738;2022-12-01T11:54:59;35.72;;;18.60;;
48040;SDS011;33815;48.386;11.738;2022-12-01T11:57:41;41.50;;;19.10;;
48040;SDS011;33815;48.386;11.738;2022-12-01T12:00:15;30.80;;;17.38;;
48040;SDS011;33815;48.386;11.738;2022-12-01T12:10:50;33.25;;;19.00;;
48040;SDS011;33815;48.386;11.738;2022-12-01T12:25:00;33.22;;;17.98;;
48040;SDS011;33815;48.386;11.738;2022-12-01T12:27:34;37.97;;;17.13;;
48040;SDS011;33815;48.386;11.738;2022-12-01T12:30:14;34.58;;;17.08;;
48040;SDS011;33815;48.386;11.738;2022-12-01T12:47:06;35.85;;;17.52;;
48040;SDS011;33815;48.386;11.738;2022-12-01T12:49:37;35.78;;;17.45;;
48040;SDS011;33815;48.386;11.738;2022-12-01T12:54:53;38.53;;;17.48;;
48040;SDS011;33815;48.386;11.738;2022-12-01T12:57:41;40.50;;;17.35;;
48040;SDS011;33815;48.386;11.738;2022-12-01T13:00:16;44.58;;;18.70;;
48040;SDS011;33815;48.386;11.738;2022-12-01T13:02:47;39.13;;;17.67;;
48040;SDS011;33815;48.386;11.738;2022-12-01T13:08:44;34.17;;;17.40;;
48040;SDS011;33815;48.386;11.738;2022-12-01T13:11:12;34.95;;;17.55;;
48040;SDS011;33815;48.386;11.738;2022-12-01T13:16:26;37.92;;;18.25;;
48040;SDS011;33815;48.386;11.738;2022-12-01T13:19:09;40.22;;;18.08;;
48040;SDS011;33815;48.386;11.738;2022-12-01T13:21:40;35.80;;;17.35;;
48040;SDS011;33815;48.386;11.738;2022-12-01T13:24:09;41.78;;;18.52;;
48040;SDS011;33815;48.386;11.738;2022-12-01T13:26:37;43.08;;;20.42;;
48040;SDS011;33815;48.386;11.738;2022-12-01T13:29:05;38.78;;;19.02;;
48040;SDS011;33815;48.386;11.738;2022-12-01T13:31:45;37.85;;;18.92;;
48040;SDS011;33815;48.386;11.738;2022-12-01T13:34:24;38.55;;;17.70;;
48040;SDS011;33815;48.386;11.738;2022-12-01T13:36:53;42.55;;;19.35;;
48040;SDS011;33815;48.386;11.738;2022-12-01T13:39:21;37.95;;;18.52;;
48040;SDS011;33815;48.386;11.738;2022-12-01T13:41:55;42.65;;;19.95;;
48040;SDS011;33815;48.386;11.738;2022-12-01T13:44:22;41.78;;;19.27;;
48040;SDS011;33815;48.386;11.738;2022-12-01T13:46:52;36.67;;;18.15;;
48040;SDS011;33815;48.386;11.738;2022-12-01T13:54:40;41.15;;;19.13;;
48040;SDS011;33815;48.386;11.738;2022-12-01T13:57:33;41.42;;;19.05;;
48040;SDS011;33815;48.386;11.738;2022-12-01T14:00:28;41.08;;;18.80;;
48040;SDS011;33815;48.386;11.738;2022-12-01T14:08:14;38.67;;;18.63;;
48040;SDS011;33815;48.386;11.738;2022-12-01T14:10:51;38.67;;;18.65;;
48040;SDS011;33815;48.386;11.738;2022-12-01T14:13:18;42.28;;;20.30;;
48040;SDS011;33815;48.386;11.738;2022-12-01T14:15:50;39.20;;;18.40;;
48040;SDS011;33815;48.386;11.738;2022-12-01T14:18:33;42.83;;;19.33;;
48040;SDS011;33815;48.386;11.738;2022-12-01T14:21:13;35.92;;;18.60;;
48040;SDS011;33815;48.386;11.738;2022-12-01T14:24:02;39.95;;;19.23;;
48040;SDS011;33815;48.386;11.738;2022-12-01T14:26:29;42.08;;;18.67;;
48040;SDS011;33815;48.386;11.738;2022-12-01T14:31:24;39.63;;;18.70;;
48040;SDS011;33815;48.386;11.738;2022-12-01T14:36:42;41.53;;;17.35;;
48040;SDS011;33815;48.386;11.738;2022-12-01T14:39:17;41.60;;;17.98;;
48040;SDS011;33815;48.386;11.738;2022-12-01T14:41:49;44.35;;;19.35;;
48040;SDS011;33815;48.386;11.738;2022-12-01T14:47:00;36.67;;;18.00;;
48040;SDS011;33815;48.386;11.738;2022-12-01T14:49:39;47.97;;;21.85;;
48040;SDS011;33815;48.386;11.738;2022-12-01T14:52:16;41.70;;;18.45;;
48040;SDS011;33815;48.386;11.738;2022-12-01T14:54:57;41.40;;;18.60;;
48040;SDS011;33815;48.386;11.738;2022-12-01T14:57:27;39.97;;;18.92;;
48040;SDS011;33815;48.386;11.738;2022-12-01T15:00:16;45.05;;;20.77;;
48040;SDS011;33815;48.386;11.738;2022-12-01T15:02:54;43.60;;;20.42;;
48040;SDS011;33815;48.386;11.738;2022-12-01T15:05:23;46.92;;;20.58;;
48040;SDS011;33815;48.386;11.738;2022-12-01T15:07:51;41.50;;;19.80;;
48040;SDS011;33815;48.386;11.738;2022-12-01T15:10:23;47.78;;;20.70;;
48040;SDS011;33815;48.386;11.738;2022-12-01T15:12:51;47.15;;;20.13;;
48040;SDS011;33815;48.386;11.738;2022-12-01T15:15:18;42.15;;;20.05;;
48040;SDS011;33815;48.386;11.738;2022-12-01T15:17:47;39.20;;;18.85;;
48040;SDS011;33815;48.386;11.738;2022-12-01T15:20:32;37.40;;;18.17;;
48040;SDS011;33815;48.386;11.738;2022-12-01T15:23:00;42.67;;;20.45;;
48040;SDS011;33815;48.386;11.738;2022-12-01T15:30:28;41.25;;;19.48;;
48040;SDS011;33815;48.386;11.738;2022-12-01T15:32:54;40.17;;;19.17;;
48040;SDS011;33815;48.386;11.738;2022-12-01T15:35:20;42.25;;;20.35;;
48040;SDS011;33815;48.386;11.738;2022-12-01T15:37:47;39.95;;;20.48;;
48040;SDS011;33815;48.386;11.738;2022-12-01T15:40:15;42.80;;;21.55;;
48040;SDS011;33815;48.386;11.738;2022-12-01T15:42:42;48.00;;;21.00;;
48040;SDS011;33815;48.386;11.738;2022-12-01T15:55:49;43.13;;;19.60;;
48040;SDS011;33815;48.386;11.738;2022-12-01T15:58:18;41.97;;;20.25;;
48040;SDS011;33815;48.386;11.738;2022-12-01T16:00:54;40.85;;;19.00;;
48040;SDS011;33815;48.386;11.738;2022-12-01T16:03:23;35.85;;;18.75;;
48040;SDS011;33815;48.386;11.738;2022-12-01T16:05:48;42.22;;;19.00;;
48040;SDS011;33815;48.386;11.738;2022-12-01T16:08:18;44.67;;;21.08;;
48040;SDS011;33815;48.386;11.738;2022-12-01T16:10:45;49.78;;;22.08;;
48040;SDS011;33815;48.386;11.738;2022-12-01T16:18:59;50.10;;;22.23;;
48040;SDS011;33815;48.386;11.738;2022-12-01T16:21:26;46.58;;;22.92;;
48040;SDS011;33815;48.386;11.738;2022-12-01T16:23:58;42.70;;;21.45;;
48040;SDS011;33815;48.386;11.738;2022-12-01T16:26:27;40.88;;;20.35;;
48040;SDS011;33815;48.386;11.738;2022-12-01T16:28:54;41.50;;;19.10;;
48040;SDS011;33815;48.386;11.738;2022-12-01T16:31:20;42.88;;;20.13;;
48040;SDS011;33815;48.386;11.738;2022-12-01T16:33:46;40.60;;;19.55;;
48040;SDS011;33815;48.386;11.738;2022-12-01T16:36:11;40.60;;;19.42;;
48040;SDS011;33815;48.386;11.738;2022-12-01T16:38:38;40.08;;;19.70;;
48040;SDS011;33815;48.386;11.738;2022-12-01T16:41:14;43.55;;;20.65;;
48040;SDS011;33815;48.386;11.738;2022-12-01T16:43:41;39.85;;;19.95;;
48040;SDS011;33815;48.386;11.738;2022-12-01T16:46:08;44.10;;;19.85;;